Time;durP1;ratioP1;P1;durP2;ratioP2;P2;SDS_P1;SDS_P2;PMS_P1;PMS_P2;Temp;Humidity;BMP_temperature;BMP_pressure;BME280_temperature;BME280_humidity;BME280_pressure;Samples;Min_cycle;Max_cycle;Signal;HPM_P1;HPM_P2
2022/04/29 00:00:39;;;;;;;14.60;7.43;;;3.80;99.90;;;;;;5031059;28;20026;-50
2022/04/29 00:03:09;;;;;;;13.35;6.90;;;3.70;99.90;;;;;;5030184;28;20236;-49
2022/04/29 00:05:36;;;;;;;6.68;6.07;;;3.80;99.90;;;;;;5030949;28;20018;-50
2022/04/29 00:08:05;;;;;;;7.63;6.75;;;3.80;99.90;;;;;;5031217;28;20014;-52
2022/04/29 00:10:31;;;;;;;9.50;7.15;;;3.80;99.90;;;;;;5031059;28;20018;-50
2022/04/29 00:12:58;;;;;;;8.57;6.43;;;3.80;99.90;;;;;;5031215;28;20016;-49
2022/04/29 00:15:24;;;;;;;9.07;6.50;;;3.80;99.90;;;;;;5031152;28;20037;-54
2022/04/29 00:17:49;;;;;;;11.05;7.25;;;3.80;99.90;;;;;;5031723;28;20041;-47
2022/04/29 00:20:15;;;;;;;8.23;7.30;;;3.80;99.90;;;;;;5031645;28;20036;-47
2022/04/29 00:22:41;;;;;;;8.02;7.22;;;3.70;99.90;;;;;;5031686;28;20590;-49
2022/04/29 00:25:08;;;;;;;10.95;6.97;;;3.70;99.90;;;;;;5031656;28;20092;-49
2022/04/29 00:27:35;;;;;;;6.90;6.18;;;3.70;99.90;;;;;;5031242;28;20060;-48
2022/04/29 00:30:01;;;;;;;7.40;6.60;;;3.60;99.90;;;;;;5031210;28;20030;-50
2022/04/29 00:32:27;;;;;;;8.15;6.72;;;3.60;99.90;;;;;;5030327;28;20037;-47
2022/04/29 00:34:53;;;;;;;8.48;6.70;;;3.60;99.90;;;;;;5030398;28;20030;-48
2022/04/29 00:37:18;;;;;;;8.57;6.90;;;3.50;99.90;;;;;;5029621;28;20018;-49
2022/04/29 00:39:44;;;;;;;10.15;7.05;;;3.50;99.90;;;;;;5030470;28;20112;-47
2022/04/29 00:42:15;;;;;;;9.27;6.15;;;3.50;99.90;;;;;;5029737;28;20076;-51
2022/04/29 00:44:42;;;;;;;15.23;7.28;;;3.50;99.90;;;;;;5030597;28;20412;-52
2022/04/29 00:47:11;;;;;;;10.80;7.25;;;3.50;99.90;;;;;;5029201;28;20048;-53
2022/04/29 00:49:37;;;;;;;7.55;6.78;;;3.40;99.90;;;;;;5030634;28;20025;-49
2022/04/29 00:52:06;;;;;;;17.60;8.00;;;3.40;99.90;;;;;;5030669;28;20030;-52
2022/04/29 00:54:34;;;;;;;13.52;7.57;;;3.30;99.90;;;;;;5030822;28;20018;-51
2022/04/29 00:57:01;;;;;;;11.98;8.55;;;3.30;99.90;;;;;;5030250;28;20041;-50
2022/04/29 00:59:35;;;;;;;11.50;7.15;;;3.30;99.90;;;;;;5030512;28;20056;-49
2022/04/29 01:02:03;;;;;;;8.32;6.88;;;3.30;99.90;;;;;;5030329;28;20023;-51
2022/04/29 01:04:35;;;;;;;8.50;7.57;;;3.40;99.90;;;;;;5030264;28;20033;-50
2022/04/29 01:07:03;;;;;;;8.43;6.80;;;3.30;99.90;;;;;;5030491;28;20051;-52
2022/04/29 01:09:28;;;;;;;18.80;7.47;;;3.20;99.90;;;;;;5030719;28;20547;-47
2022/04/29 01:11:54;;;;;;;12.85;8.18;;;3.10;99.90;;;;;;5030670;28;20163;-47
2022/04/29 01:14:22;;;;;;;8.65;6.78;;;3.10;99.90;;;;;;5032466;28;20132;-52
2022/04/29 01:16:47;;;;;;;14.40;7.05;;;3.10;99.90;;;;;;5034153;28;20025;-48
2022/04/29 01:19:13;;;;;;;9.40;8.00;;;3.10;99.90;;;;;;5034579;28;20070;-49
2022/04/29 01:21:39;;;;;;;17.02;7.30;;;3.10;99.90;;;;;;5033686;28;20036;-50
2022/04/29 01:24:08;;;;;;;10.30;7.18;;;3.10;99.90;;;;;;5034357;28;20033;-50
2022/04/29 01:26:34;;;;;;;10.35;6.97;;;3.10;99.90;;;;;;5034642;28;20846;-49
2022/04/29 01:29:01;;;;;;;7.70;6.38;;;3.00;99.90;;;;;;5034330;28;20032;-50
2022/04/29 01:31:29;;;;;;;8.38;7.50;;;3.00;99.90;;;;;;5034061;28;20022;-51
2022/04/29 01:33:55;;;;;;;9.20;6.13;;;2.90;99.90;;;;;;5034382;28;20057;-48
2022/04/29 01:36:21;;;;;;;13.95;6.68;;;2.90;99.90;;;;;;5033640;28;20050;-47
2022/04/29 01:38:47;;;;;;;12.93;7.60;;;2.90;99.90;;;;;;5034453;28;20088;-49
2022/04/29 01:41:13;;;;;;;10.07;7.13;;;2.80;99.90;;;;;;5034367;28;20045;-47
2022/04/29 01:43:39;;;;;;;7.97;7.18;;;2.70;99.90;;;;;;5034282;28;20405;-49
2022/04/29 01:46:05;;;;;;;8.90;7.35;;;2.80;99.90;;;;;;5033254;28;20029;-49
2022/04/29 01:48:31;;;;;;;11.13;6.78;;;2.80;99.90;;;;;;5034020;28;20032;-49
2022/04/29 01:50:56;;;;;;;7.53;6.82;;;2.80;99.90;;;;;;5033218;28;20037;-49
2022/04/29 01:53:22;;;;;;;11.20;7.60;;;2.70;99.90;;;;;;5033811;28;20470;-49
2022/04/29 01:55:48;;;;;;;7.75;7.03;;;2.60;99.90;;;;;;5033892;28;20083;-47
2022/04/29 01:58:13;;;;;;;14.38;8.68;;;2.60;99.90;;;;;;5033758;28;20566;-53
2022/04/29 02:00:40;;;;;;;9.23;8.18;;;2.60;99.90;;;;;;5033455;28;20025;-50
2022/04/29 02:03:06;;;;;;;12.77;8.73;;;2.50;99.90;;;;;;5032340;28;20030;-51
2022/04/29 02:05:32;;;;;;;11.50;8.40;;;2.60;99.90;;;;;;5033372;28;20104;-47
2022/04/29 02:07:57;;;;;;;10.52;7.80;;;2.50;99.90;;;;;;5033676;28;20112;-48
2022/04/29 02:10:23;;;;;;;14.32;8.57;;;2.50;99.90;;;;;;5033763;28;20048;-47
2022/04/29 02:12:49;;;;;;;9.25;6.70;;;2.50;99.90;;;;;;5033625;28;20025;-47
2022/04/29 02:15:16;;;;;;;10.65;8.02;;;2.50;99.90;;;;;;5033021;28;20554;-52
2022/04/29 02:17:41;;;;;;;9.02;7.38;;;2.50;99.90;;;;;;5033110;28;20108;-50
2022/04/29 02:20:08;;;;;;;11.80;8.13;;;2.50;99.90;;;;;;5033479;28;20410;-49
2022/04/29 02:22:34;;;;;;;9.70;7.40;;;2.40;99.90;;;;;;5032529;28;20683;-50
2022/04/29 02:24:59;;;;;;;14.50;8.30;;;2.40;99.90;;;;;;5031856;28;20025;-51
2022/04/29 02:27:25;;;;;;;9.18;8.27;;;2.40;99.90;;;;;;5032430;28;20488;-48
2022/04/29 02:29:51;;;;;;;11.05;7.70;;;2.40;99.90;;;;;;5032625;28;20048;-48
2022/04/29 02:32:18;;;;;;;12.32;7.82;;;2.40;99.90;;;;;;5033121;28;20025;-48
2022/04/29 02:34:43;;;;;;;9.55;7.35;;;2.40;99.90;;;;;;5031362;28;20040;-52
2022/04/29 02:37:09;;;;;;;7.43;6.70;;;2.50;99.90;;;;;;5031849;28;20393;-47
2022/04/29 02:39:35;;;;;;;7.82;7.00;;;2.50;99.90;;;;;;5033120;28;20021;-52
2022/04/29 02:42:02;;;;;;;8.63;7.75;;;2.40;99.90;;;;;;5033426;28;20404;-54
2022/04/29 02:44:28;;;;;;;8.25;7.45;;;2.40;99.90;;;;;;5032456;28;20036;-51
2022/04/29 02:47:09;;;;;;;7.45;6.68;;;2.40;99.90;;;;;;5033091;28;20025;-50
2022/04/29 02:49:43;;;;;;;14.00;7.47;;;2.30;99.90;;;;;;5033011;28;20144;-47
2022/04/29 02:52:10;;;;;;;17.63;8.13;;;2.30;99.90;;;;;;5031745;28;20743;-48
2022/04/29 02:54:36;;;;;;;9.73;8.20;;;2.20;99.90;;;;;;5032715;28;20516;-52
2022/04/29 02:57:02;;;;;;;10.60;8.10;;;2.10;99.90;;;;;;5032560;28;20025;-49
2022/04/29 02:59:28;;;;;;;13.95;9.13;;;2.10;99.90;;;;;;5032597;28;20372;-55
2022/04/29 03:01:54;;;;;;;19.02;10.07;;;2.00;99.90;;;;;;5032773;28;20135;-48
2022/04/29 03:04:19;;;;;;;10.63;7.57;;;2.10;99.90;;;;;;5032743;28;20492;-53
2022/04/29 03:06:45;;;;;;;13.55;8.32;;;2.10;99.90;;;;;;5032813;28;20021;-50
2022/04/29 03:09:11;;;;;;;9.68;7.45;;;2.10;99.90;;;;;;5032755;28;20029;-53
2022/04/29 03:11:37;;;;;;;12.85;8.10;;;2.10;99.90;;;;;;5032049;28;20022;-53
2022/04/29 03:14:03;;;;;;;11.77;8.38;;;2.20;99.90;;;;;;5031756;28;20050;-50
2022/04/29 03:16:29;;;;;;;8.55;7.30;;;2.10;99.90;;;;;;5032238;28;20040;-49
2022/04/29 03:18:55;;;;;;;12.63;7.82;;;2.00;99.90;;;;;;5031011;28;20061;-52
2022/04/29 03:21:21;;;;;;;10.50;7.95;;;2.00;99.90;;;;;;5031571;28;20018;-49
2022/04/29 03:23:48;;;;;;;9.27;8.30;;;1.90;99.90;;;;;;5030606;28;20079;-55
2022/04/29 03:26:13;;;;;;;10.63;8.90;;;2.00;99.90;;;;;;5031736;28;20481;-54
2022/04/29 03:28:39;;;;;;;23.73;8.48;;;2.00;99.90;;;;;;5032101;28;20030;-50
2022/04/29 03:31:05;;;;;;;9.27;8.27;;;2.10;99.90;;;;;;5032304;28;20052;-50
2022/04/29 03:33:32;;;;;;;10.32;8.13;;;2.00;99.90;;;;;;5031223;28;20105;-48
2022/04/29 03:35:59;;;;;;;14.95;7.32;;;2.10;99.90;;;;;;5031762;28;20025;-50
2022/04/29 03:38:25;;;;;;;12.82;8.10;;;2.10;99.90;;;;;;5031012;28;20545;-49
2022/04/29 03:40:51;;;;;;;21.88;8.63;;;2.10;99.90;;;;;;5031589;28;20056;-54
2022/04/29 03:43:17;;;;;;;11.75;7.93;;;2.10;99.90;;;;;;5031357;28;20080;-49
2022/04/29 03:45:43;;;;;;;8.82;7.70;;;2.00;99.90;;;;;;5031436;28;20025;-53
2022/04/29 03:48:09;;;;;;;11.30;7.45;;;2.00;99.90;;;;;;5029998;28;20040;-52
2022/04/29 03:50:35;;;;;;;14.68;7.78;;;2.00;99.90;;;;;;5031728;28;20025;-49
2022/04/29 03:53:02;;;;;;;12.98;8.07;;;2.00;99.90;;;;;;5032057;28;20100;-53
2022/04/29 03:55:32;;;;;;;14.05;7.70;;;2.00;99.90;;;;;;5031828;28;20169;-51
2022/04/29 03:57:58;;;;;;;8.77;7.88;;;2.00;99.90;;;;;;5031864;28;20108;-51
2022/04/29 04:00:31;;;;;;;10.93;7.57;;;2.00;99.90;;;;;;5031820;28;20018;-50
2022/04/29 04:02:57;;;;;;;16.85;7.65;;;2.00;99.90;;;;;;5031952;28;20026;-49
2022/04/29 04:05:23;;;;;;;8.88;7.30;;;2.00;99.90;;;;;;5031729;28;20017;-53
2022/04/29 04:07:49;;;;;;;22.80;7.65;;;2.00;99.90;;;;;;5031822;28;20100;-49
2022/04/29 04:10:15;;;;;;;10.57;7.03;;;2.00;99.90;;;;;;5031689;28;20051;-53
2022/04/29 04:12:51;;;;;;;12.45;8.18;;;1.90;99.90;;;;;;5031868;28;20380;-50
2022/04/29 04:15:20;;;;;;;8.55;7.13;;;2.00;99.90;;;;;;5031501;28;20518;-55
2022/04/29 04:17:46;;;;;;;18.67;8.82;;;2.00;99.90;;;;;;5031526;28;20342;-48
2022/04/29 04:20:14;;;;;;;12.75;8.15;;;2.10;99.90;;;;;;5031521;28;20053;-54
2022/04/29 04:22:40;;;;;;;9.15;7.55;;;2.10;99.90;;;;;;5031431;28;20021;-48
2022/04/29 04:25:12;;;;;;;11.63;8.63;;;2.10;99.90;;;;;;5031509;28;20017;-50
2022/04/29 04:27:38;;;;;;;11.73;8.27;;;2.10;99.90;;;;;;5031301;28;20112;-53
2022/04/29 04:30:05;;;;;;;13.15;8.00;;;2.20;99.90;;;;;;5031398;28;20104;-52
2022/04/29 04:32:35;;;;;;;15.00;8.90;;;2.20;99.90;;;;;;5030774;28;20113;-50
2022/04/29 04:35:01;;;;;;;23.48;8.98;;;2.20;99.90;;;;;;5031462;28;20083;-52
2022/04/29 04:37:28;;;;;;;13.23;7.30;;;2.30;99.90;;;;;;5031030;28;20033;-54
2022/04/29 04:39:58;;;;;;;11.25;8.07;;;2.40;99.90;;;;;;5031210;28;20412;-52
2022/04/29 04:42:24;;;;;;;16.42;8.65;;;2.40;99.90;;;;;;5031270;28;20052;-55
2022/04/29 04:44:50;;;;;;;14.35;8.32;;;2.50;99.90;;;;;;5031255;28;20025;-52
2022/04/29 04:47:17;;;;;;;30.58;9.32;;;2.50;99.90;;;;;;5031201;28;20025;-50
2022/04/29 04:49:43;;;;;;;9.80;8.38;;;2.60;99.90;;;;;;5034361;28;20029;-53
2022/04/29 04:52:09;;;;;;;15.30;8.25;;;2.60;99.90;;;;;;5035357;28;20083;-49
2022/04/29 04:54:36;;;;;;;9.77;8.35;;;2.70;99.90;;;;;;5035044;28;20477;-49
2022/04/29 04:57:02;;;;;;;18.05;9.93;;;2.80;99.90;;;;;;5033875;28;20444;-50
2022/04/29 04:59:52;;;;;;;38.90;12.45;;;2.90;99.90;;;;;;5035008;28;20076;-52
2022/04/29 05:02:18;;;;;;;12.73;9.43;;;2.90;99.90;;;;;;5033517;28;20540;-53
2022/04/29 05:04:43;;;;;;;18.88;10.05;;;3.00;99.90;;;;;;5033845;28;20121;-49
2022/04/29 05:07:09;;;;;;;28.60;9.25;;;3.10;99.90;;;;;;5035160;28;20037;-51
2022/04/29 05:09:34;;;;;;;12.45;8.68;;;3.20;99.90;;;;;;5034645;28;20038;-52
2022/04/29 05:12:00;;;;;;;13.45;8.05;;;3.40;99.90;;;;;;5034943;28;20548;-51
2022/04/29 05:14:26;;;;;;;17.40;9.75;;;3.50;99.90;;;;;;5033175;28;20665;-54
2022/04/29 05:16:51;;;;;;;18.27;8.95;;;3.60;99.90;;;;;;5034926;28;20419;-49
2022/04/29 05:19:17;;;;;;;17.63;9.45;;;3.60;99.90;;;;;;5034740;28;20026;-51
2022/04/29 05:21:43;;;;;;;13.65;9.02;;;3.80;99.90;;;;;;5034750;28;20021;-52
2022/04/29 05:24:08;;;;;;;21.50;9.07;;;3.90;99.90;;;;;;5034755;28;20428;-49
2022/04/29 05:26:34;;;;;;;10.85;8.18;;;4.00;99.90;;;;;;5034505;28;20358;-51
2022/04/29 05:28:59;;;;;;;10.80;8.73;;;4.20;99.90;;;;;;5034521;28;20105;-50
2022/04/29 05:31:25;;;;;;;11.50;8.13;;;4.30;99.90;;;;;;5034471;28;20029;-55
2022/04/29 05:33:51;;;;;;;11.55;7.47;;;4.50;99.90;;;;;;5034541;28;20029;-51
2022/04/29 05:36:17;;;;;;;12.63;7.32;;;4.70;99.90;;;;;;5034362;28;20031;-49
2022/04/29 05:44:12;;;;;;;19.27;10.80;;;5.00;99.90;;;;;;5034129;28;20435;-56
2022/04/29 05:46:38;;;;;;;21.95;11.52;;;5.10;99.90;;;;;;5033638;28;20033;-55
2022/04/29 05:49:04;;;;;;;16.25;10.27;;;5.20;99.90;;;;;;5034279;28;20033;-50
2022/04/29 05:51:30;;;;;;;21.45;13.52;;;5.30;99.90;;;;;;5034237;28;20527;-52
2022/04/29 05:53:56;;;;;;;23.13;14.02;;;5.40;99.90;;;;;;5034068;28;20038;-51
2022/04/29 05:56:21;;;;;;;28.60;15.15;;;5.50;99.90;;;;;;5034035;28;20045;-51
2022/04/29 05:58:47;;;;;;;23.67;13.77;;;5.70;99.90;;;;;;5034337;28;20025;-51
2022/04/29 06:01:12;;;;;;;29.85;17.50;;;5.90;99.90;;;;;;5032991;28;20018;-49
2022/04/29 06:03:38;;;;;;;33.72;18.02;;;6.10;99.90;;;;;;5033824;28;20669;-53
2022/04/29 06:06:04;;;;;;;43.92;22.35;;;6.20;99.90;;;;;;5034149;28;20041;-53
2022/04/29 06:08:30;;;;;;;45.05;22.52;;;6.40;99.90;;;;;;5033582;28;20021;-51
2022/04/29 06:10:55;;;;;;;47.75;24.27;;;6.60;99.90;;;;;;5032731;28;20171;-52
2022/04/29 06:13:21;;;;;;;41.95;20.92;;;6.70;99.90;;;;;;5032432;28;20025;-51
2022/04/29 06:15:47;;;;;;;32.47;18.75;;;7.00;99.90;;;;;;5032352;28;20128;-54
2022/04/29 06:18:12;;;;;;;29.33;18.10;;;7.10;99.90;;;;;;5032427;28;20068;-51
2022/04/29 06:20:38;;;;;;;29.15;18.50;;;7.20;99.90;;;;;;5033467;28;20048;-49
2022/04/29 06:23:04;;;;;;;31.95;17.48;;;7.40;99.90;;;;;;5033248;28;20465;-55
2022/04/29 06:25:29;;;;;;;17.75;11.98;;;7.50;99.90;;;;;;5032913;28;20026;-52
2022/04/29 06:27:55;;;;;;;10.15;7.60;;;7.70;99.90;;;;;;5032704;28;20079;-53
2022/04/29 06:30:21;;;;;;;7.30;6.05;;;7.90;99.90;;;;;;5032863;28;20044;-51
2022/04/29 06:32:47;;;;;;;11.68;5.65;;;8.10;99.90;;;;;;5033560;28;20573;-51
2022/04/29 06:35:14;;;;;;;7.13;5.15;;;8.40;99.90;;;;;;5033405;28;20075;-48
2022/04/29 06:37:40;;;;;;;11.15;5.82;;;8.60;99.90;;;;;;5033206;28;20418;-49
2022/04/29 06:40:08;;;;;;;7.93;5.05;;;8.80;99.90;;;;;;5031998;28;20112;-51
2022/04/29 06:42:45;;;;;;;7.90;5.68;;;9.00;99.90;;;;;;5033163;28;20018;-50
2022/04/29 06:45:11;;;;;;;8.05;6.13;;;9.20;99.90;;;;;;5033481;28;20040;-50
2022/04/29 06:47:36;;;;;;;5.03;4.38;;;9.30;99.90;;;;;;5032667;28;20028;-54
2022/04/29 06:50:02;;;;;;;8.68;5.82;;;9.40;99.90;;;;;;5033211;28;20029;-50
2022/04/29 06:52:28;;;;;;;7.10;5.35;;;9.40;99.90;;;;;;5033145;28;20065;-53
2022/04/29 06:54:54;;;;;;;11.60;5.78;;;9.60;99.90;;;;;;5033191;28;20095;-50
2022/04/29 06:57:20;;;;;;;5.63;5.05;;;9.80;99.90;;;;;;5031584;28;20028;-49
2022/04/29 06:59:45;;;;;;;8.63;5.30;;;9.90;99.90;;;;;;5033085;28;20108;-51
2022/04/29 07:02:11;;;;;;;6.68;5.45;;;10.00;99.90;;;;;;5032921;28;20029;-50
2022/04/29 07:04:38;;;;;;;6.50;5.50;;;10.20;99.90;;;;;;5032657;28;20560;-51
2022/04/29 07:07:05;;;;;;;7.82;6.07;;;10.30;99.90;;;;;;5032993;28;20037;-50
2022/04/29 07:09:31;;;;;;;6.22;5.25;;;10.50;99.90;;;;;;5032798;28;20032;-66
2022/04/29 07:11:56;;;;;;;5.50;4.82;;;10.60;99.90;;;;;;5032488;28;20373;-54
2022/04/29 07:14:22;;;;;;;5.25;4.75;;;10.80;99.90;;;;;;5032468;28;20049;-53
2022/04/29 07:16:49;;;;;;;13.48;5.85;;;10.90;99.90;;;;;;5032862;28;20048;-56
2022/04/29 07:19:15;;;;;;;6.40;5.35;;;11.00;99.90;;;;;;5024347;28;20025;-52
2022/04/29 07:21:41;;;;;;;7.85;5.55;;;11.10;99.90;;;;;;5021814;28;20044;-50
2022/04/29 07:24:07;;;;;;;6.00;4.60;;;11.30;99.90;;;;;;5022099;28;20029;-50
2022/04/29 07:26:33;;;;;;;9.05;5.10;;;11.30;99.90;;;;;;5022117;28;20033;-51
2022/04/29 07:28:59;;;;;;;12.52;5.07;;;11.50;99.90;;;;;;5021389;28;20034;-52
2022/04/29 07:31:24;;;;;;;5.65;5.07;;;11.80;99.90;;;;;;5029285;28;20029;-52
2022/04/29 07:33:50;;;;;;;10.23;4.95;;;12.00;99.90;;;;;;5032338;28;20022;-51
2022/04/29 07:41:47;;;;;;;;;;;12.50;99.90;;;;;;5032734;28;20113;-55
2022/04/29 07:44:13;;;;;;;8.15;5.22;;;12.60;99.90;;;;;;5032224;28;19905;-51
2022/04/29 07:46:43;;;;;;;5.97;4.80;;;12.80;99.90;;;;;;5032136;28;20084;-51
2022/04/29 07:49:09;;;;;;;7.95;5.03;;;12.90;99.90;;;;;;5032081;28;20120;-54
2022/04/29 07:51:36;;;;;;;6.45;4.60;;;12.80;99.90;;;;;;5030602;28;20040;-52
2022/04/29 07:54:02;;;;;;;11.02;5.72;;;12.90;99.90;;;;;;5032117;28;20014;-52
2022/04/29 07:56:28;;;;;;;10.57;5.65;;;13.10;99.90;;;;;;5031531;28;20112;-50
2022/04/29 07:58:55;;;;;;;6.32;4.60;;;13.00;99.30;;;;;;5032083;28;20106;-51
2022/04/29 08:01:21;;;;;;;6.45;5.65;;;13.10;99.90;;;;;;5031851;28;20009;-53
2022/04/29 08:03:47;;;;;;;6.63;4.95;;;13.10;98.80;;;;;;5031759;28;20021;-51
2022/04/29 08:06:13;;;;;;;6.25;5.15;;;13.10;98.60;;;;;;5031842;28;20473;-53
2022/04/29 08:08:39;;;;;;;7.35;5.70;;;13.10;99.40;;;;;;5030973;28;20074;-55
2022/04/29 08:11:05;;;;;;;6.25;5.00;;;13.20;97.80;;;;;;5031297;28;20037;-53
2022/04/29 08:13:32;;;;;;;17.42;12.65;;;13.30;97.40;;;;;;5031419;28;20033;-52
2022/04/29 08:15:59;;;;;;;11.43;5.72;;;13.50;97.80;;;;;;5031820;28;20025;-53
2022/04/29 08:18:26;;;;;;;8.48;5.43;;;13.60;96.10;;;;;;5031626;28;20443;-51
2022/04/29 08:20:52;;;;;;;9.50;5.45;;;13.70;93.70;;;;;;5031695;28;20393;-53
2022/04/29 08:23:18;;;;;;;16.70;6.00;;;13.90;94.20;;;;;;5030854;28;20032;-53
2022/04/29 08:25:43;;;;;;;13.80;5.70;;;14.00;92.30;;;;;;5031902;28;20013;-51
2022/04/29 08:28:09;;;;;;;9.40;5.72;;;13.80;91.10;;;;;;5031518;28;20061;-53
2022/04/29 08:30:35;;;;;;;9.38;6.07;;;14.00;94.40;;;;;;5031424;28;20033;-51
2022/04/29 08:33:01;;;;;;;9.00;7.00;;;14.10;92.70;;;;;;5031369;28;20033;-50
2022/04/29 08:35:28;;;;;;;17.55;7.50;;;14.20;92.20;;;;;;5031435;28;20025;-54
2022/04/29 08:37:56;;;;;;;15.80;6.78;;;14.20;90.00;;;;;;5031506;28;20076;-53
2022/04/29 08:40:23;;;;;;;13.02;6.95;;;14.40;90.90;;;;;;5031393;28;20026;-56
2022/04/29 08:42:50;;;;;;;17.13;6.65;;;14.40;89.50;;;;;;5031541;28;20049;-50
2022/04/29 08:45:18;;;;;;;8.90;7.28;;;14.60;90.60;;;;;;5031317;28;20052;-54
2022/04/29 08:47:45;;;;;;;12.30;6.68;;;14.70;90.70;;;;;;5031585;28;20025;-50
2022/04/29 08:50:18;;;;;;;9.38;6.68;;;14.80;87.50;;;;;;5031436;28;20125;-56
2022/04/29 08:52:45;;;;;;;16.50;7.03;;;15.10;91.90;;;;;;5031485;28;20030;-55
2022/04/29 09:00:43;;;;;;;13.48;7.10;;;15.30;84.60;;;;;;5031375;28;20036;-52
2022/04/29 09:03:14;;;;;;;9.65;6.55;;;15.50;85.40;;;;;;5031347;28;20354;-54
2022/04/29 09:05:43;;;;;;;12.75;7.22;;;15.50;83.80;;;;;;5031110;28;20465;-54
2022/04/29 09:08:14;;;;;;;11.85;6.60;;;15.60;82.40;;;;;;5031238;28;20084;-53
2022/04/29 09:10:58;;;;;;;10.23;7.07;;;15.80;81.60;;;;;;5030973;28;20031;-54
2022/04/29 09:13:27;;;;;;;;;;;16.10;78.80;;;;;;5031312;28;20056;-54
2022/04/29 09:15:59;;;;;;;10.88;6.68;;;16.10;76.40;;;;;;5031023;28;19908;-54
2022/04/29 09:18:54;;;;;;;10.35;6.50;;;16.00;77.90;;;;;;5030903;28;20079;-53
2022/04/29 09:21:22;;;;;;;13.73;7.30;;;16.20;75.90;;;;;;5030888;28;20155;-52
2022/04/29 09:23:59;;;;;;;11.38;6.45;;;16.40;78.70;;;;;;5030999;28;20029;-55
2022/04/29 09:26:37;;;;;;;8.73;5.32;;;16.40;77.60;;;;;;5030664;28;20040;-52
2022/04/29 09:29:14;;;;;;;8.75;5.65;;;16.60;71.70;;;;;;5041125;28;20033;-57
2022/04/29 09:31:53;;;;;;;7.40;5.90;;;16.70;70.00;;;;;;5017952;28;20365;-56
2022/04/29 09:34:20;;;;;;;6.68;5.43;;;16.90;66.90;;;;;;5021367;28;20046;-56
2022/04/29 09:36:46;;;;;;;6.88;5.75;;;16.80;68.40;;;;;;5024512;28;20051;-57
2022/04/29 09:39:27;;;;;;;14.45;6.20;;;16.90;65.10;;;;;;5023821;28;20112;-57
2022/04/29 09:41:59;;;;;;;10.65;5.72;;;17.20;64.90;;;;;;5023633;28;20028;-54
2022/04/29 09:44:35;;;;;;;6.82;5.00;;;17.50;66.20;;;;;;5022876;28;20033;-56
2022/04/29 09:47:11;;;;;;;6.88;5.50;;;17.60;64.10;;;;;;5023401;28;20151;-55
2022/04/29 09:49:38;;;;;;;7.15;5.00;;;17.60;61.20;;;;;;5024063;28;21557;-54
2022/04/29 09:52:05;;;;;;;8.38;4.60;;;17.30;54.90;;;;;;5022437;28;20366;-56
2022/04/29 09:54:38;;;;;;;10.65;5.88;;;17.40;55.50;;;;;;5023316;28;20047;-55
2022/04/29 09:57:15;;;;;;;10.05;6.13;;;17.50;60.80;;;;;;5022480;28;20124;-57
2022/04/29 09:59:44;;;;;;;6.60;5.53;;;17.50;62.50;;;;;;5022880;28;20033;-57
2022/04/29 10:02:12;;;;;;;13.52;6.50;;;17.90;65.30;;;;;;5023696;28;22643;-56
2022/04/29 10:04:40;;;;;;;10.48;7.15;;;17.60;60.90;;;;;;5023720;28;20025;-54
2022/04/29 10:07:08;;;;;;;10.40;5.40;;;18.10;66.80;;;;;;5022659;28;20124;-56
2022/04/29 10:09:36;;;;;;;10.25;5.05;;;17.90;57.60;;;;;;5021157;28;20103;-58
2022/04/29 10:12:04;;;;;;;6.82;5.13;;;17.90;59.00;;;;;;5026261;28;20030;-57
2022/04/29 10:14:31;;;;;;;10.50;5.30;;;18.10;59.70;;;;;;5042475;28;20076;-56
2022/04/29 10:22:40;;;;;;;8.55;5.38;;;18.50;51.80;;;;;;5042427;28;20044;-50
2022/04/29 10:25:08;;;;;;;7.68;5.28;;;18.60;59.40;;;;;;5042785;28;20468;-54
2022/04/29 10:27:37;;;;;;;8.20;4.93;;;18.70;53.70;;;;;;5047130;28;20091;-56
2022/04/29 10:30:03;;;;;;;6.63;5.03;;;19.00;57.70;;;;;;5053535;28;20029;-56
2022/04/29 10:32:29;;;;;;;7.88;6.03;;;19.00;54.20;;;;;;5053129;28;20087;-56
2022/04/29 10:34:55;;;;;;;9.07;5.88;;;19.40;54.00;;;;;;5053311;28;20468;-54
2022/04/29 10:37:32;;;;;;;8.32;4.18;;;19.50;49.90;;;;;;5052890;28;20029;-56
2022/04/29 10:40:10;;;;;;;17.55;5.90;;;19.00;53.40;;;;;;5053455;28;20074;-53
2022/04/29 10:43:03;;;;;;;7.35;5.00;;;19.20;53.50;;;;;;5020509;28;20490;-56
2022/04/29 10:45:29;;;;;;;15.93;5.70;;;19.20;56.20;;;;;;5023274;28;22671;-56
2022/04/29 10:47:55;;;;;;;8.32;5.10;;;19.20;51.80;;;;;;5023293;28;20041;-53
2022/04/29 10:50:29;;;;;;;7.32;5.40;;;19.00;51.90;;;;;;5023542;28;20116;-57
2022/04/29 10:52:59;;;;;;;10.68;5.13;;;19.30;50.80;;;;;;5022792;28;20083;-54
2022/04/29 10:55:26;;;;;;;10.18;4.65;;;19.60;52.90;;;;;;5023410;28;20029;-56
2022/04/29 10:57:51;;;;;;;12.20;4.80;;;19.80;50.20;;;;;;5023755;28;20028;-55
2022/04/29 11:00:22;;;;;;;9.13;5.40;;;19.90;53.20;;;;;;5032541;28;20144;-52
2022/04/29 11:02:47;;;;;;;8.43;5.85;;;19.90;48.40;;;;;;5033080;28;20518;-54
2022/04/29 11:05:34;;;;;;;11.57;6.13;;;19.80;51.90;;;;;;5032937;28;20106;-55
2022/04/29 11:08:13;;;;;;;8.93;5.22;;;19.60;49.40;;;;;;5032743;28;20480;-56
2022/04/29 11:10:59;;;;;;;17.90;5.18;;;20.00;51.70;;;;;;5031188;28;20033;-51
2022/04/29 11:13:27;;;;;;;10.90;5.03;;;20.20;50.60;;;;;;5032548;28;20056;-57
2022/04/29 11:16:05;;;;;;;9.57;4.50;;;20.00;50.70;;;;;;5032785;28;20087;-58
2022/04/29 11:18:31;;;;;;;30.17;9.93;;;20.30;48.90;;;;;;5032385;28;20072;-56
2022/04/29 11:20:59;;;;;;;47.50;15.10;;;20.30;47.20;;;;;;5032534;28;20026;-57
2022/04/29 11:26:14;;;;;;;10.35;5.85;;;20.10;48.20;;;;;;5032672;28;20155;-57
2022/04/29 11:28:40;;;;;;;7.05;5.30;;;19.90;49.30;;;;;;5032352;28;20044;-56
2022/04/29 11:31:08;;;;;;;11.07;5.57;;;20.30;48.70;;;;;;5032328;28;20029;-54
2022/04/29 11:33:34;;;;;;;9.95;6.32;;;20.40;47.00;;;;;;5030564;28;20650;-55
2022/04/29 11:36:13;;;;;;;10.07;5.25;;;20.70;48.10;;;;;;5032072;28;20052;-57
2022/04/29 11:38:49;;;;;;;6.95;4.80;;;21.10;48.00;;;;;;5032094;28;20026;-58
2022/04/29 11:41:30;;;;;;;5.75;5.10;;;21.60;48.80;;;;;;5032209;28;20040;-56
2022/04/29 11:43:57;;;;;;;8.55;4.80;;;22.40;45.10;;;;;;5032224;28;20389;-58
2022/04/29 11:46:23;;;;;;;16.08;4.35;;;23.20;43.60;;;;;;5032018;28;20030;-57
2022/04/29 11:48:58;;;;;;;7.43;3.88;;;23.80;42.10;;;;;;5031997;28;20033;-58
2022/04/29 11:51:28;;;;;;;9.18;4.57;;;24.80;40.50;;;;;;5033930;28;20116;-58
2022/04/29 11:54:03;;;;;;;6.82;4.10;;;24.60;39.00;;;;;;5032133;28;20029;-58
2022/04/29 11:56:42;;;;;;;6.03;4.35;;;24.90;39.10;;;;;;5031674;28;20481;-59
2022/04/29 11:59:09;;;;;;;9.70;3.58;;;24.90;38.50;;;;;;5032015;28;20030;-59
2022/04/29 12:01:36;;;;;;;7.15;4.60;;;25.30;39.00;;;;;;5049934;28;20040;-59
2022/04/29 12:04:02;;;;;;;9.60;3.60;;;24.80;35.00;;;;;;5051372;28;20388;-57
2022/04/29 12:06:28;;;;;;;8.18;3.17;;;25.60;37.30;;;;;;5051609;28;20044;-59
2022/04/29 12:08:54;;;;;;;10.43;3.65;;;25.90;36.10;;;;;;5051730;28;20394;-57
2022/04/29 12:11:24;;;;;;;14.27;3.53;;;26.00;35.10;;;;;;5037039;28;20048;-58
2022/04/29 12:13:52;;;;;;;7.03;3.95;;;26.70;37.10;;;;;;5031448;28;20159;-57
2022/04/29 12:16:18;;;;;;;8.40;3.70;;;26.10;36.40;;;;;;5031569;28;20025;-58
2022/04/29 12:18:46;;;;;;;4.38;3.97;;;26.10;37.90;;;;;;5030424;28;20029;-56
2022/04/29 12:21:19;;;;;;;7.88;3.67;;;25.90;35.50;;;;;;5043281;28;20518;-55
2022/04/29 12:23:45;;;;;;;;;;;26.80;36.00;;;;;;5050950;28;20025;-53
2022/04/29 12:26:11;;;;;;;9.70;3.50;;;27.40;35.40;;;;;;5051444;28;19950;-57
2022/04/29 12:28:37;;;;;;;9.57;3.72;;;27.10;35.20;;;;;;5051407;28;20074;-53
2022/04/29 12:36:54;;;;;;;6.97;3.33;;;26.80;33.70;;;;;;5031539;28;20193;-56
2022/04/29 12:39:35;;;;;;;6.85;3.35;;;27.40;34.50;;;;;;5031364;28;20032;-57
2022/04/29 12:42:06;;;;;;;12.43;3.42;;;27.80;34.60;;;;;;5049020;28;20027;-58
2022/04/29 12:45:04;;;;;;;8.18;3.33;;;27.80;35.40;;;;;;5051035;28;20029;-57
2022/04/29 12:47:42;;;;;;;9.75;3.55;;;26.90;34.70;;;;;;5051116;28;20024;-56
2022/04/29 12:50:36;;;;;;;9.57;3.47;;;25.70;35.70;;;;;;5048893;28;20037;-57
2022/04/29 12:53:14;;;;;;;8.35;3.50;;;25.40;37.00;;;;;;5031345;28;20107;-58
2022/04/29 12:55:42;;;;;;;8.43;3.90;;;25.40;35.70;;;;;;5031126;28;20079;-58
2022/04/29 12:58:14;;;;;;;8.55;3.63;;;26.00;35.40;;;;;;5031296;28;20021;-58
2022/04/29 13:00:44;;;;;;;12.55;4.05;;;26.00;34.30;;;;;;5036704;28;20021;-57
2022/04/29 13:03:27;;;;;;;9.73;3.83;;;27.00;35.10;;;;;;5050649;28;20108;-58
2022/04/29 13:05:54;;;;;;;21.88;3.60;;;27.00;34.10;;;;;;5050631;28;20486;-59
2022/04/29 13:08:20;;;;;;;5.60;3.60;;;26.40;35.10;;;;;;5050640;28;20033;-58
2022/04/29 13:10:49;;;;;;;6.75;3.33;;;26.30;32.30;;;;;;5046872;28;20026;-58
2022/04/29 13:13:15;;;;;;;6.20;3.55;;;26.10;35.90;;;;;;5035121;28;20492;-58
2022/04/29 13:15:41;;;;;;;5.68;3.45;;;26.20;35.10;;;;;;5034580;28;20053;-57
2022/04/29 13:18:12;;;;;;;13.68;3.55;;;26.00;34.50;;;;;;5034853;28;20032;-58
2022/04/29 13:20:41;;;;;;;17.33;4.25;;;25.90;35.40;;;;;;5040185;28;20021;-56
2022/04/29 13:23:07;;;;;;;4.95;3.20;;;26.00;36.40;;;;;;5053453;28;20416;-58